sensor_id;sensor_type;location;lat;lon;timestamp;pressure;altitude;pressure_sealevel;temperature;humidity
64827;BME280;51265;53.972;12.286;2023-02-16T00:00:18;101517.03;;;0.39;100.00
64827;BME280;51265;53.972;12.286;2023-02-16T00:02:45;101510.75;;;0.39;100.00
64827;BME280;51265;53.972;12.286;2023-02-16T00:05:28;101509.94;;;0.38;100.00
64827;BME280;51265;53.972;12.286;2023-02-16T00:07:56;101515.34;;;0.38;100.00
64827;BME280;51265;53.972;12.286;2023-02-16T00:10:24;101510.97;;;0.37;100.00
64827;BME280;51265;53.972;12.286;2023-02-16T00:12:51;101506.78;;;0.41;100.00
64827;BME280;51265;53.972;12.286;2023-02-16T00:15:36;101503.66;;;0.44;100.00
64827;BME280;51265;53.972;12.286;2023-02-16T00:18:06;101502.00;;;0.43;100.00
64827;BME280;51265;53.972;12.286;2023-02-16T00:20:37;101500.75;;;0.39;100.00
64827;BME280;51265;53.972;12.286;2023-02-16T00:23:03;101500.75;;;0.39;100.00
64827;BME280;51265;53.972;12.286;2023-02-16T00:25:29;101508.88;;;0.39;100.00
64827;BME280;51265;53.972;12.286;2023-02-16T00:27:56;101503.88;;;0.36;100.00
64827;BME280;51265;53.972;12.286;2023-02-16T00:30:22;101499.31;;;0.30;100.00
64827;BME280;51265;53.972;12.286;2023-02-16T00:32:49;101496.81;;;0.22;100.00
64827;BME280;51265;53.972;12.286;2023-02-16T00:35:20;101484.31;;;0.21;100.00
64827;BME280;51265;53.972;12.286;2023-02-16T00:37:47;101493.25;;;0.15;100.00
64827;BME280;51265;53.972;12.286;2023-02-16T00:40:15;101495.78;;;0.10;100.00
64827;BME280;51265;53.972;12.286;2023-02-16T00:42:43;101495.97;;;0.02;100.00
64827;BME280;51265;53.972;12.286;2023-02-16T00:45:18;101484.28;;;-0.06;100.00
64827;BME280;51265;53.972;12.286;2023-02-16T00:47:50;101476.41;;;-0.07;100.00
64827;BME280;51265;53.972;12.286;2023-02-16T00:50:29;101484.09;;;-0.11;100.00
64827;BME280;51265;53.972;12.286;2023-02-16T00:52:56;101487.84;;;-0.12;100.00
64827;BME280;51265;53.972;12.286;2023-02-16T00:55:28;101485.75;;;-0.10;100.00
64827;BME280;51265;53.972;12.286;2023-02-16T00:58:04;101479.72;;;-0.12;100.00
64827;BME280;51265;53.972;12.286;2023-02-16T01:00:35;101472.63;;;-0.13;100.00
64827;BME280;51265;53.972;12.286;2023-02-16T01:03:08;101475.31;;;-0.13;100.00
64827;BME280;51265;53.972;12.286;2023-02-16T01:05:35;101472.84;;;-0.14;100.00
64827;BME280;51265;53.972;12.286;2023-02-16T01:08:08;101467.00;;;-0.18;100.00
64827;BME280;51265;53.972;12.286;2023-02-16T01:10:53;101475.75;;;-0.09;100.00
64827;BME280;51265;53.972;12.286;2023-02-16T01:13:45;101466.59;;;0.05;100.00
64827;BME280;51265;53.972;12.286;2023-02-16T01:16:19;101474.94;;;0.17;100.00
64827;BME280;51265;53.972;12.286;2023-02-16T01:18:46;101460.34;;;-0.09;100.00
64827;BME280;51265;53.972;12.286;2023-02-16T01:21:12;101458.66;;;-0.10;100.00
64827;BME280;51265;53.972;12.286;2023-02-16T01:23:39;101466.16;;;-0.18;100.00
64827;BME280;51265;53.972;12.286;2023-02-16T01:26:14;101460.78;;;-0.25;100.00
64827;BME280;51265;53.972;12.286;2023-02-16T01:28:41;101468.25;;;-0.27;100.00
64827;BME280;51265;53.972;12.286;2023-02-16T01:31:09;101463.84;;;-0.35;100.00
64827;BME280;51265;53.972;12.286;2023-02-16T01:33:35;101458.66;;;-0.36;100.00
64827;BME280;51265;53.972;12.286;2023-02-16T01:36:02;101457.44;;;-0.20;100.00
64827;BME280;51265;53.972;12.286;2023-02-16T01:38:29;101464.09;;;-0.10;100.00
64827;BME280;51265;53.972;12.286;2023-02-16T01:41:08;101459.09;;;-0.06;100.00
64827;BME280;51265;53.972;12.286;2023-02-16T01:43:52;101459.72;;;-0.11;100.00
64827;BME280;51265;53.972;12.286;2023-02-16T01:46:46;101462.03;;;-0.08;100.00
64827;BME280;51265;53.972;12.286;2023-02-16T01:49:17;101456.59;;;-0.14;100.00
64827;BME280;51265;53.972;12.286;2023-02-16T01:52:04;101454.09;;;-0.22;100.00
64827;BME280;51265;53.972;12.286;2023-02-16T01:57:17;101447.81;;;-0.49;100.00
64827;BME280;51265;53.972;12.286;2023-02-16T02:02:15;101445.75;;;-0.34;100.00
64827;BME280;51265;53.972;12.286;2023-02-16T02:04:59;101437.59;;;-0.47;100.00
64827;BME280;51265;53.972;12.286;2023-02-16T02:07:50;101436.16;;;-0.57;100.00
64827;BME280;51265;53.972;12.286;2023-02-16T02:13:37;101440.91;;;-0.59;100.00
64827;BME280;51265;53.972;12.286;2023-02-16T02:16:05;101441.34;;;-0.55;100.00
64827;BME280;51265;53.972;12.286;2023-02-16T02:18:32;101449.28;;;-0.40;100.00
64827;BME280;51265;53.972;12.286;2023-02-16T02:26:57;101431.81;;;-0.18;100.00
64827;BME280;51265;53.972;12.286;2023-02-16T02:35:05;101405.34;;;-0.22;100.00
64827;BME280;51265;53.972;12.286;2023-02-16T02:37:57;101403.06;;;-0.19;100.00
64827;BME280;51265;53.972;12.286;2023-02-16T02:45:42;101388.28;;;-0.23;100.00
64827;BME280;51265;53.972;12.286;2023-02-16T02:48:10;101387.03;;;-0.27;100.00
64827;BME280;51265;53.972;12.286;2023-02-16T02:50:53;101392.44;;;-0.27;100.00
64827;BME280;51265;53.972;12.286;2023-02-16T02:53:51;101383.47;;;-0.34;100.00
64827;BME280;51265;53.972;12.286;2023-02-16T02:56:45;101382.66;;;-0.21;100.00
64827;BME280;51265;53.972;12.286;2023-02-16T02:59:33;101377.88;;;-0.26;100.00
64827;BME280;51265;53.972;12.286;2023-02-16T03:02:22;101376.63;;;-0.50;100.00
64827;BME280;51265;53.972;12.286;2023-02-16T03:04:51;101384.94;;;-0.58;100.00
64827;BME280;51265;53.972;12.286;2023-02-16T03:07:18;101373.69;;;-0.62;100.00
64827;BME280;51265;53.972;12.286;2023-02-16T03:09:53;101381.63;;;-0.54;100.00
64827;BME280;51265;53.972;12.286;2023-02-16T03:12:39;101381.81;;;-0.35;100.00
64827;BME280;51265;53.972;12.286;2023-02-16T03:15:12;101376.84;;;-0.25;100.00
64827;BME280;51265;53.972;12.286;2023-02-16T03:17:39;101388.28;;;-0.30;100.00
64827;BME280;51265;53.972;12.286;2023-02-16T03:20:24;101379.94;;;-0.55;100.00
64827;BME280;51265;53.972;12.286;2023-02-16T03:23:10;101386.59;;;-0.64;100.00
64827;BME280;51265;53.972;12.286;2023-02-16T03:25:56;101397.78;;;-0.80;100.00
64827;BME280;51265;53.972;12.286;2023-02-16T03:28:42;101416.56;;;-0.59;100.00
64827;BME280;51265;53.972;12.286;2023-02-16T03:31:32;101413.47;;;-0.36;100.00
64827;BME280;51265;53.972;12.286;2023-02-16T03:34:18;101418.91;;;-0.29;100.00
64827;BME280;51265;53.972;12.286;2023-02-16T03:36:48;101423.69;;;-0.11;100.00
64827;BME280;51265;53.972;12.286;2023-02-16T03:39:16;101427.41;;;0.21;100.00
64827;BME280;51265;53.972;12.286;2023-02-16T03:41:48;101429.91;;;0.22;100.00
64827;BME280;51265;53.972;12.286;2023-02-16T03:44:16;101425.31;;;0.23;100.00
64827;BME280;51265;53.972;12.286;2023-02-16T03:46:44;101410.72;;;0.24;100.00
64827;BME280;51265;53.972;12.286;2023-02-16T03:49:11;101417.81;;;0.25;100.00
64827;BME280;51265;53.972;12.286;2023-02-16T03:51:37;101400.09;;;0.16;100.00
64827;BME280;51265;53.972;12.286;2023-02-16T03:54:03;101404.72;;;0.09;100.00
64827;BME280;51265;53.972;12.286;2023-02-16T03:56:30;101410.34;;;0.14;100.00
64827;BME280;51265;53.972;12.286;2023-02-16T03:58:56;101402.84;;;0.09;100.00
64827;BME280;51265;53.972;12.286;2023-02-16T04:01:22;101413.69;;;0.09;100.00
64827;BME280;51265;53.972;12.286;2023-02-16T04:03:48;101412.81;;;0.15;100.00
64827;BME280;51265;53.972;12.286;2023-02-16T04:06:15;101407.81;;;0.19;100.00
64827;BME280;51265;53.972;12.286;2023-02-16T04:08:41;101405.72;;;0.28;100.00
64827;BME280;51265;53.972;12.286;2023-02-16T04:11:07;101392.59;;;0.24;100.00
64827;BME280;51265;53.972;12.286;2023-02-16T04:13:52;101388.44;;;0.15;100.00
64827;BME280;51265;53.972;12.286;2023-02-16T04:16:18;101385.75;;;0.09;100.00
64827;BME280;51265;53.972;12.286;2023-02-16T04:18:44;101394.09;;;0.01;100.00
64827;BME280;51265;53.972;12.286;2023-02-16T04:21:11;101384.31;;;-0.07;100.00
64827;BME280;51265;53.972;12.286;2023-02-16T04:23:37;101381.59;;;-0.14;100.00
64827;BME280;51265;53.972;12.286;2023-02-16T04:26:03;101378.28;;;-0.16;100.00
64827;BME280;51265;53.972;12.286;2023-02-16T04:28:30;101384.53;;;-0.15;100.00
64827;BME280;51265;53.972;12.286;2023-02-16T04:30:56;101392.03;;;-0.11;100.00
64827;BME280;51265;53.972;12.286;2023-02-16T04:33:22;101381.19;;;-0.11;100.00
64827;BME280;51265;53.972;12.286;2023-02-16T04:35:48;101371.19;;;-0.17;100.00
64827;BME280;51265;53.972;12.286;2023-02-16T04:38:14;101363.91;;;-0.30;100.00
64827;BME280;51265;53.972;12.286;2023-02-16T04:40:41;101377.25;;;-0.15;100.00
64827;BME280;51265;53.972;12.286;2023-02-16T04:43:07;101384.53;;;0.05;100.00
64827;BME280;51265;53.972;12.286;2023-02-16T04:45:33;101367.25;;;-0.08;100.00
64827;BME280;51265;53.972;12.286;2023-02-16T04:47:59;101362.03;;;-0.22;100.00
64827;BME280;51265;53.972;12.286;2023-02-16T04:50:25;101368.31;;;-0.29;100.00
64827;BME280;51265;53.972;12.286;2023-02-16T04:52:51;101368.72;;;-0.12;100.00
64827;BME280;51265;53.972;12.286;2023-02-16T04:55:18;101367.81;;;0.14;100.00
64827;BME280;51265;53.972;12.286;2023-02-16T04:57:44;101369.47;;;0.22;100.00
64827;BME280;51265;53.972;12.286;2023-02-16T05:00:10;101378.63;;;0.34;100.00
64827;BME280;51265;53.972;12.286;2023-02-16T05:02:37;101361.16;;;0.17;100.00
64827;BME280;51265;53.972;12.286;2023-02-16T05:05:03;101364.91;;;0.03;100.00
64827;BME280;51265;53.972;12.286;2023-02-16T05:07:29;101352.44;;;-0.05;100.00
64827;BME280;51265;53.972;12.286;2023-02-16T05:09:55;101351.81;;;-0.14;100.00
64827;BME280;51265;53.972;12.286;2023-02-16T05:12:22;101359.94;;;-0.14;100.00
64827;BME280;51265;53.972;12.286;2023-02-16T05:15:07;101358.06;;;-0.13;100.00
64827;BME280;51265;53.972;12.286;2023-02-16T05:17:33;101355.41;;;-0.33;100.00
64827;BME280;51265;53.972;12.286;2023-02-16T05:20:00;101355.41;;;-0.33;100.00
64827;BME280;51265;53.972;12.286;2023-02-16T05:22:27;101365.16;;;-0.39;100.00
64827;BME280;51265;53.972;12.286;2023-02-16T05:25:00;101363.31;;;-0.45;100.00
64827;BME280;51265;53.972;12.286;2023-02-16T05:27:29;101360.16;;;-0.55;100.00
64827;BME280;51265;53.972;12.286;2023-02-16T05:29:56;101363.09;;;-0.50;100.00
64827;BME280;51265;53.972;12.286;2023-02-16T05:32:23;101377.03;;;-0.20;100.00
64827;BME280;51265;53.972;12.286;2023-02-16T05:34:50;101364.13;;;-0.18;100.00
64827;BME280;51265;53.972;12.286;2023-02-16T05:37:17;101359.91;;;-0.01;100.00
64827;BME280;51265;53.972;12.286;2023-02-16T05:39:44;101355.75;;;0.04;100.00
64827;BME280;51265;53.972;12.286;2023-02-16T05:42:10;101353.88;;;0.04;100.00
64827;BME280;51265;53.972;12.286;2023-02-16T05:44:36;101328.31;;;-0.46;100.00
64827;BME280;51265;53.972;12.286;2023-02-16T05:47:02;101332.25;;;-0.42;100.00
64827;BME280;51265;53.972;12.286;2023-02-16T05:49:29;101323.94;;;-0.67;100.00
64827;BME280;51265;53.972;12.286;2023-02-16T05:51:55;101326.66;;;-0.67;100.00
64827;BME280;51265;53.972;12.286;2023-02-16T05:54:21;101336.22;;;-0.32;100.00
64827;BME280;51265;53.972;12.286;2023-02-16T05:56:49;101338.94;;;-0.25;100.00
64827;BME280;51265;53.972;12.286;2023-02-16T05:59:17;101347.22;;;0.07;100.00
64827;BME280;51265;53.972;12.286;2023-02-16T06:01:43;101339.13;;;-0.13;100.00
64827;BME280;51265;53.972;12.286;2023-02-16T06:04:12;101332.91;;;-0.40;100.00
64827;BME280;51265;53.972;12.286;2023-02-16T06:06:40;101335.56;;;-0.07;100.00
64827;BME280;51265;53.972;12.286;2023-02-16T06:09:07;101340.38;;;-0.16;100.00
64827;BME280;51265;53.972;12.286;2023-02-16T06:11:33;101336.63;;;-0.21;100.00
64827;BME280;51265;53.972;12.286;2023-02-16T06:14:08;101341.97;;;0.12;100.00
64827;BME280;51265;53.972;12.286;2023-02-16T06:16:37;101344.03;;;0.23;100.00
64827;BME280;51265;53.972;12.286;2023-02-16T06:19:05;101331.13;;;0.18;100.00
64827;BME280;51265;53.972;12.286;2023-02-16T06:21:32;101328.66;;;0.17;100.00
64827;BME280;51265;53.972;12.286;2023-02-16T06:23:58;101334.06;;;0.17;100.00
64827;BME280;51265;53.972;12.286;2023-02-16T06:26:25;101341.47;;;0.41;100.00
64827;BME280;51265;53.972;12.286;2023-02-16T06:28:51;101334.06;;;0.04;100.00
64827;BME280;51265;53.972;12.286;2023-02-16T06:31:18;101343.22;;;0.16;100.00
64827;BME280;51265;53.972;12.286;2023-02-16T06:33:44;101341.16;;;0.18;100.00
64827;BME280;51265;53.972;12.286;2023-02-16T06:36:11;101347.56;;;0.30;100.00
64827;BME280;51265;53.972;12.286;2023-02-16T06:38:37;101339.94;;;0.01;100.00
64827;BME280;51265;53.972;12.286;2023-02-16T06:41:04;101339.53;;;-0.10;100.00
64827;BME280;51265;53.972;12.286;2023-02-16T06:43:30;101339.13;;;-0.07;100.00
64827;BME280;51265;53.972;12.286;2023-02-16T06:45:57;101337.00;;;-0.05;100.00
64827;BME280;51265;53.972;12.286;2023-02-16T06:48:23;101342.81;;;0.19;100.00
64827;BME280;51265;53.972;12.286;2023-02-16T06:50:50;101354.38;;;0.53;100.00
64827;BME280;51265;53.972;12.286;2023-02-16T06:53:17;101351.84;;;0.58;100.00
64827;BME280;51265;53.972;12.286;2023-02-16T06:55:44;101342.22;;;0.62;100.00
64827;BME280;51265;53.972;12.286;2023-02-16T06:58:11;101341.47;;;0.41;100.00
64827;BME280;51265;53.972;12.286;2023-02-16T07:00:37;101321.53;;;0.22;100.00
64827;BME280;51265;53.972;12.286;2023-02-16T07:03:03;101326.81;;;-0.03;100.00
64827;BME280;51265;53.972;12.286;2023-02-16T07:05:30;101317.03;;;-0.17;100.00
64827;BME280;51265;53.972;12.286;2023-02-16T07:07:56;101310.00;;;-0.24;100.00
64827;BME280;51265;53.972;12.286;2023-02-16T07:10:22;101324.53;;;-0.26;100.00
64827;BME280;51265;53.972;12.286;2023-02-16T07:12:49;101330.81;;;-0.25;100.00
64827;BME280;51265;53.972;12.286;2023-02-16T07:15:15;101338.31;;;-0.20;100.00
64827;BME280;51265;53.972;12.286;2023-02-16T07:17:41;101348.06;;;-0.13;100.00
64827;BME280;51265;53.972;12.286;2023-02-16T07:20:08;101347.25;;;-0.07;100.00
64827;BME280;51265;53.972;12.286;2023-02-16T07:22:34;101351.59;;;-0.06;100.00
64827;BME280;51265;53.972;12.286;2023-02-16T07:25:00;101349.94;;;-0.07;100.00
64827;BME280;51265;53.972;12.286;2023-02-16T07:27:30;101350.78;;;0.01;100.00
64827;BME280;51265;53.972;12.286;2023-02-16T07:29:56;101342.38;;;0.15;100.00
64827;BME280;51265;53.972;12.286;2023-02-16T07:32:23;101350.72;;;0.20;100.00
64827;BME280;51265;53.972;12.286;2023-02-16T07:34:49;101348.22;;;0.19;100.00
64827;BME280;51265;53.972;12.286;2023-02-16T07:37:15;101349.28;;;0.18;100.00
64827;BME280;51265;53.972;12.286;2023-02-16T07:39:42;101342.81;;;0.19;100.00
64827;BME280;51265;53.972;12.286;2023-02-16T07:42:08;101350.94;;;0.26;100.00
64827;BME280;51265;53.972;12.286;2023-02-16T07:44:34;101353.34;;;0.47;100.00
64827;BME280;51265;53.972;12.286;2023-02-16T07:47:00;101351.88;;;0.44;100.00
64827;BME280;51265;53.972;12.286;2023-02-16T07:49:27;101354.78;;;0.49;100.00
64827;BME280;51265;53.972;12.286;2023-02-16T07:51:53;101366.44;;;0.63;100.00
64827;BME280;51265;53.972;12.286;2023-02-16T07:54:19;101352.56;;;0.78;100.00
64827;BME280;51265;53.972;12.286;2023-02-16T07:56:45;101356.00;;;0.98;100.00
64827;BME280;51265;53.972;12.286;2023-02-16T07:59:14;101357.00;;;1.11;100.00
64827;BME280;51265;53.972;12.286;2023-02-16T08:01:40;101359.44;;;1.19;100.00
64827;BME280;51265;53.972;12.286;2023-02-16T08:04:07;101370.19;;;1.32;100.00
64827;BME280;51265;53.972;12.286;2023-02-16T08:06:34;101358.50;;;1.38;100.00
64827;BME280;51265;53.972;12.286;2023-02-16T08:09:00;101369.66;;;1.48;100.00
64827;BME280;51265;53.972;12.286;2023-02-16T08:11:27;101374.56;;;1.65;100.00
64827;BME280;51265;53.972;12.286;2023-02-16T08:13:53;101373.22;;;1.74;100.00
64827;BME280;51265;53.972;12.286;2023-02-16T08:16:22;101378.38;;;1.82;100.00
64827;BME280;51265;53.972;12.286;2023-02-16T08:18:49;101369.56;;;1.87;100.00
64827;BME280;51265;53.972;12.286;2023-02-16T08:21:18;101375.88;;;2.06;100.00
64827;BME280;51265;53.972;12.286;2023-02-16T08:23:52;101380.41;;;2.12;100.00
64827;BME280;51265;53.972;12.286;2023-02-16T08:26:20;101366.81;;;2.12;100.00
64827;BME280;51265;53.972;12.286;2023-02-16T08:28:48;101367.09;;;2.04;100.00
64827;BME280;51265;53.972;12.286;2023-02-16T08:31:17;101361.78;;;1.90;100.00
64827;BME280;51265;53.972;12.286;2023-02-16T08:33:45;101351.72;;;1.97;100.00
64827;BME280;51265;53.972;12.286;2023-02-16T08:36:31;101354.56;;;2.03;100.00
64827;BME280;51265;53.972;12.286;2023-02-16T08:39:01;101353.66;;;2.09;100.00
64827;BME280;51265;53.972;12.286;2023-02-16T08:41:31;101347.34;;;2.15;100.00
64827;BME280;51265;53.972;12.286;2023-02-16T08:43:57;101352.03;;;2.26;100.00
64827;BME280;51265;53.972;12.286;2023-02-16T08:46:27;101368.56;;;2.24;100.00
64827;BME280;51265;53.972;12.286;2023-02-16T08:48:58;101355.81;;;2.43;100.00
64827;BME280;51265;53.972;12.286;2023-02-16T08:51:30;101357.75;;;2.55;100.00
64827;BME280;51265;53.972;12.286;2023-02-16T08:53:58;101356.41;;;2.64;100.00
64827;BME280;51265;53.972;12.286;2023-02-16T08:56:25;101356.31;;;2.70;100.00
64827;BME280;51265;53.972;12.286;2023-02-16T08:58:51;101349.59;;;2.73;100.00
64827;BME280;51265;53.972;12.286;2023-02-16T09:01:17;101351.38;;;2.79;100.00
64827;BME280;51265;53.972;12.286;2023-02-16T09:03:44;101350.00;;;2.88;100.00
64827;BME280;51265;53.972;12.286;2023-02-16T09:06:12;101343.78;;;2.99;100.00
64827;BME280;51265;53.972;12.286;2023-02-16T09:08:40;101340.59;;;3.03;100.00
64827;BME280;51265;53.972;12.286;2023-02-16T09:11:14;101335.09;;;3.21;100.00
64827;BME280;51265;53.972;12.286;2023-02-16T09:13:41;101338.69;;;3.33;100.00
64827;BME280;51265;53.972;12.286;2023-02-16T09:16:10;101328.06;;;3.43;100.00
64827;BME280;51265;53.972;12.286;2023-02-16T09:18:37;101326.66;;;3.53;100.00
64827;BME280;51265;53.972;12.286;2023-02-16T09:21:10;101329.75;;;3.68;100.00
64827;BME280;51265;53.972;12.286;2023-02-16T09:23:37;101334.34;;;3.79;100.00
64827;BME280;51265;53.972;12.286;2023-02-16T09:26:04;101330.19;;;3.88;100.00
64827;BME280;51265;53.972;12.286;2023-02-16T09:28:52;101327.13;;;3.96;100.00
64827;BME280;51265;53.972;12.286;2023-02-16T09:31:36;101324.59;;;4.30;100.00
64827;BME280;51265;53.972;12.286;2023-02-16T09:34:22;101323.63;;;4.48;100.00
64827;BME280;51265;53.972;12.286;2023-02-16T09:37:06;101316.72;;;4.57;100.00
64827;BME280;51265;53.972;12.286;2023-02-16T09:42:19;101310.06;;;4.93;100.00
64827;BME280;51265;53.972;12.286;2023-02-16T09:47:24;101293.13;;;5.25;100.00
64827;BME280;51265;53.972;12.286;2023-02-16T09:49:52;101293.56;;;5.34;100.00
64827;BME280;51265;53.972;12.286;2023-02-16T09:54:52;101276.25;;;5.62;100.00
64827;BME280;51265;53.972;12.286;2023-02-16T10:03:36;101243.97;;;5.97;100.00
64827;BME280;51265;53.972;12.286;2023-02-16T10:08:58;101233.88;;;6.42;100.00
64827;BME280;51265;53.972;12.286;2023-02-16T10:11:38;101208.22;;;6.48;100.00
64827;BME280;51265;53.972;12.286;2023-02-16T10:16:41;101203.31;;;6.77;100.00
64827;BME280;51265;53.972;12.286;2023-02-16T10:19:20;101187.59;;;6.94;100.00
64827;BME280;51265;53.972;12.286;2023-02-16T10:21:51;101186.56;;;7.06;100.00
64827;BME280;51265;53.972;12.286;2023-02-16T10:24:18;101168.47;;;6.99;100.00
64827;BME280;51265;53.972;12.286;2023-02-16T10:27:06;101158.72;;;7.19;100.00
64827;BME280;51265;53.972;12.286;2023-02-16T10:29:54;101152.69;;;7.17;100.00
64827;BME280;51265;53.972;12.286;2023-02-16T10:32:26;101158.25;;;7.27;100.00
64827;BME280;51265;53.972;12.286;2023-02-16T10:35:14;101143.09;;;7.57;100.00
64827;BME280;51265;53.972;12.286;2023-02-16T10:38:11;101124.44;;;7.54;100.00
64827;BME280;51265;53.972;12.286;2023-02-16T10:40:54;101133.31;;;7.76;100.00
64827;BME280;51265;53.972;12.286;2023-02-16T10:43:43;101109.13;;;7.68;100.00
64827;BME280;51265;53.972;12.286;2023-02-16T10:46:19;101078.22;;;7.20;100.00
64827;BME280;51265;53.972;12.286;2023-02-16T10:49:04;101083.00;;;6.97;100.00
64827;BME280;51265;53.972;12.286;2023-02-16T10:51:36;101089.56;;;6.96;100.00
64827;BME280;51265;53.972;12.286;2023-02-16T10:54:11;101105.34;;;6.84;100.00
64827;BME280;51265;53.972;12.286;2023-02-16T10:57:03;101109.06;;;6.68;100.00
64827;BME280;51265;53.972;12.286;2023-02-16T10:59:37;101111.78;;;6.68;100.00
64827;BME280;51265;53.972;12.286;2023-02-16T11:02:18;101123.28;;;6.65;100.00
64827;BME280;51265;53.972;12.286;2023-02-16T11:04:50;101126.22;;;6.58;100.00
64827;BME280;51265;53.972;12.286;2023-02-16T11:07:20;101125.94;;;6.60;100.00
64827;BME280;51265;53.972;12.286;2023-02-16T11:09:49;101124.63;;;6.35;100.00
64827;BME280;51265;53.972;12.286;2023-02-16T11:12:40;101128.88;;;6.21;100.00
64827;BME280;51265;53.972;12.286;2023-02-16T11:15:21;101132.06;;;6.13;100.00
64827;BME280;51265;53.972;12.286;2023-02-16T11:17:52;101137.03;;;6.16;100.00
64827;BME280;51265;53.972;12.286;2023-02-16T11:25:39;101144.03;;;6.07;100.00
64827;BME280;51265;53.972;12.286;2023-02-16T11:28:06;101151.78;;;6.15;100.00
64827;BME280;51265;53.972;12.286;2023-02-16T11:31:12;101139.72;;;6.11;100.00
64827;BME280;51265;53.972;12.286;2023-02-16T11:33:40;101157.41;;;6.30;100.00
64827;BME280;51265;53.972;12.286;2023-02-16T11:36:28;101162.53;;;6.48;100.00
64827;BME280;51265;53.972;12.286;2023-02-16T11:39:03;101144.56;;;6.58;100.00
64827;BME280;51265;53.972;12.286;2023-02-16T11:41:32;101132.56;;;6.64;100.00
64827;BME280;51265;53.972;12.286;2023-02-16T11:44:00;101124.94;;;6.66;100.00
64827;BME280;51265;53.972;12.286;2023-02-16T11:46:28;101099.63;;;6.54;100.00
64827;BME280;51265;53.972;12.286;2023-02-16T11:49:35;101116.25;;;6.74;100.00
64827;BME280;51265;53.972;12.286;2023-02-16T11:52:28;101113.91;;;6.93;100.00
64827;BME280;51265;53.972;12.286;2023-02-16T11:54:57;101102.44;;;6.96;100.00
64827;BME280;51265;53.972;12.286;2023-02-16T11:57:27;101111.88;;;7.15;100.00
64827;BME280;51265;53.972;12.286;2023-02-16T11:59:55;101109.22;;;7.31;100.00
64827;BME280;51265;53.972;12.286;2023-02-16T12:05:17;101097.06;;;7.69;100.00
64827;BME280;51265;53.972;12.286;2023-02-16T12:10:58;101054.31;;;7.68;100.00
64827;BME280;51265;53.972;12.286;2023-02-16T12:13:37;101043.31;;;7.58;100.00
64827;BME280;51265;53.972;12.286;2023-02-16T12:19:13;101033.41;;;7.52;100.00
64827;BME280;51265;53.972;12.286;2023-02-16T12:21:46;101017.22;;;7.40;100.00
64827;BME280;51265;53.972;12.286;2023-02-16T12:27:15;101020.13;;;7.23;100.00
64827;BME280;51265;53.972;12.286;2023-02-16T12:41:12;101041.44;;;6.68;100.00
64827;BME280;51265;53.972;12.286;2023-02-16T12:43:47;101047.38;;;6.55;100.00
64827;BME280;51265;53.972;12.286;2023-02-16T12:46:25;101041.69;;;6.30;100.00
64827;BME280;51265;53.972;12.286;2023-02-16T12:49:06;101051.97;;;6.17;100.00
64827;BME280;51265;53.972;12.286;2023-02-16T12:51:44;101059.94;;;6.19;100.00
64827;BME280;51265;53.972;12.286;2023-02-16T12:54:39;101075.81;;;6.22;100.00
64827;BME280;51265;53.972;12.286;2023-02-16T12:57:14;101088.47;;;6.28;100.00
64827;BME280;51265;53.972;12.286;2023-02-16T12:59:48;101089.75;;;6.20;100.00
64827;BME280;51265;53.972;12.286;2023-02-16T13:02:55;101090.72;;;6.09;100.00
64827;BME280;51265;53.972;12.286;2023-02-16T13:05:24;101097.78;;;6.05;100.00
64827;BME280;51265;53.972;12.286;2023-02-16T13:08:00;101107.72;;;6.11;100.00
64827;BME280;51265;53.972;12.286;2023-02-16T13:10:35;101113.09;;;6.28;100.00
64827;BME280;51265;53.972;12.286;2023-02-16T13:13:26;101131.66;;;6.53;100.00
64827;BME280;51265;53.972;12.286;2023-02-16T13:16:15;101134.22;;;6.65;100.00
64827;BME280;51265;53.972;12.286;2023-02-16T13:18:45;101132.72;;;6.84;100.00
64827;BME280;51265;53.972;12.286;2023-02-16T13:27:08;101111.25;;;7.45;100.00
64827;BME280;51265;53.972;12.286;2023-02-16T13:29:49;101099.47;;;7.45;100.00
64827;BME280;51265;53.972;12.286;2023-02-16T13:32:59;101074.81;;;7.50;100.00
64827;BME280;51265;53.972;12.286;2023-02-16T13:38:48;101063.97;;;7.23;100.00
64827;BME280;51265;53.972;12.286;2023-02-16T13:44:33;101053.50;;;7.10;100.00
64827;BME280;51265;53.972;12.286;2023-02-16T13:47:01;101079.63;;;7.28;100.00
64827;BME280;51265;53.972;12.286;2023-02-16T13:49:32;101066.66;;;7.13;100.00
64827;BME280;51265;53.972;12.286;2023-02-16T13:52:04;101072.75;;;7.20;100.00
64827;BME280;51265;53.972;12.286;2023-02-16T13:54:34;101063.97;;;7.23;100.00
64827;BME280;51265;53.972;12.286;2023-02-16T13:57:02;101067.88;;;7.32;100.00
64827;BME280;51265;53.972;12.286;2023-02-16T14:01:56;101048.28;;;7.61;100.00
64827;BME280;51265;53.972;12.286;2023-02-16T14:06:50;101041.53;;;8.04;100.00
64827;BME280;51265;53.972;12.286;2023-02-16T14:22:51;101005.00;;;7.93;100.00
64827;BME280;51265;53.972;12.286;2023-02-16T14:25:37;100994.31;;;7.82;100.00
64827;BME280;51265;53.972;12.286;2023-02-16T14:30:58;101006.16;;;8.03;100.00
64827;BME280;51265;53.972;12.286;2023-02-16T14:33:44;100995.38;;;7.76;100.00
64827;BME280;51265;53.972;12.286;2023-02-16T14:36:20;101002.81;;;7.80;100.00
64827;BME280;51265;53.972;12.286;2023-02-16T14:38:50;101004.44;;;7.81;100.00
64827;BME280;51265;53.972;12.286;2023-02-16T14:41:30;101012.41;;;7.98;100.00
64827;BME280;51265;53.972;12.286;2023-02-16T14:44:27;100988.56;;;7.78;100.00
64827;BME280;51265;53.972;12.286;2023-02-16T14:47:20;101002.22;;;7.63;100.00